X  Lukk Metar værinformasjon om luftfart        LYNI Nis Airport
Temperatur
9°C Temperatur
8°C Duggpunkt
93% Luftfuktighet



Vind
5 M/S
12 MPT
19 KM/T
10 KNP



330°
NNV
Nåværende forhold

Mostly Cloudy with Light Rain For det meste Overskyet , lys Regn
Trykk 1009 (hPa) - 29.8 (inHg)
Sikt 6 (mil) - 10 (km)
Flyplass
Flyplass-kode LYNI

Plassering: Nis Airport
Avstand: 63 (km)

Metar:
METAR LYNI 250830Z 33010KT 300V360 9999 -RA FEW013 BKN047 09/08 Q1009 NOSIG

Tid: 25-04-2024 10:30 CEST